Time;durP1;ratioP1;P1;durP2;ratioP2;P2;SDS_P1;SDS_P2;PMS_P1;PMS_P2;Temp;Humidity;BMP_temperature;BMP_pressure;BME280_temperature;BME280_humidity;BME280_pressure;Samples;Min_cycle;Max_cycle;Signal;HPM_P1;HPM_P2
2024/03/10 00:00:47;;;;;;;17.35;10.25;;;8.40;98.50;;;;;;5031451;28;20053;-66
2024/03/10 00:03:12;;;;;;;16.60;10.30;;;8.50;95.30;;;;;;5020627;28;20144;-66
2024/03/10 00:05:38;;;;;;;15.35;10.23;;;;;;;;;;5020165;28;20025;-66
2024/03/10 00:08:05;;;;;;;19.30;11.30;;;8.30;99.00;;;;;;5018698;28;20048;-66
2024/03/10 00:10:37;;;;;;;14.80;9.52;;;8.20;90.10;;;;;;5020019;28;20029;-67
2024/03/10 00:13:03;;;;;;;15.02;10.25;;;8.90;90.50;;;;;;5020134;28;20034;-66
2024/03/10 00:15:33;;;;;;;16.65;10.07;;;;;;;;;;5020114;28;20034;-67
2024/03/10 00:17:59;;;;;;;15.93;10.02;;;8.10;99.90;;;;;;5032944;28;20040;-67
2024/03/10 00:20:25;;;;;;;17.15;10.35;;;8.00;90.90;;;;;;5020319;28;20344;-66
2024/03/10 00:22:51;;;;;;;12.95;8.63;;;;;;;;;;5020972;28;20037;-67
2024/03/10 00:25:17;;;;;;;17.95;10.30;;;8.00;93.10;;;;;;5021900;28;20033;-66
2024/03/10 00:27:43;;;;;;;16.05;9.95;;;7.80;99.90;;;;;;5024460;28;20061;-66
2024/03/10 00:30:09;;;;;;;15.32;9.88;;;;;;;;;;5022640;28;20101;-68
2024/03/10 00:32:38;;;;;;;16.90;10.35;;;8.10;99.90;;;;;;5022577;28;20057;-66
2024/03/10 00:35:08;;;;;;;17.80;10.30;;;7.90;99.90;;;;;;5025345;28;20041;-66
2024/03/10 00:37:34;;;;;;;15.07;9.93;;;8.00;99.90;;;;;;5022262;28;20145;-69
2024/03/10 00:40:01;;;;;;;17.52;10.32;;;8.10;92.60;;;;;;5031504;28;20104;-66
2024/03/10 00:42:27;;;;;;;17.20;10.05;;;7.90;91.20;;;;;;5031437;28;20041;-69
2024/03/10 00:44:53;;;;;;;17.00;10.75;;;;;;;;;;5023008;28;20318;-66
2024/03/10 00:47:20;;;;;;;14.90;9.95;;;7.90;99.90;;;;;;5024799;28;20357;-66
2024/03/10 00:49:46;;;;;;;22.77;12.20;;;;;;;;;;5024913;28;20041;-67
2024/03/10 00:52:12;;;;;;;15.70;9.73;;;8.00;99.90;;;;;;5023086;28;20095;-67
2024/03/10 00:54:38;;;;;;;16.75;10.20;;;;;;;;;;5014554;28;20041;-66
2024/03/10 00:57:04;;;;;;;20.58;11.13;;;;;;;;;;5020192;28;20033;-67
2024/03/10 00:59:30;;;;;;;17.38;9.52;;;7.70;99.90;;;;;;5028471;28;20105;-66
2024/03/10 01:01:56;;;;;;;16.30;10.32;;;7.90;97.30;;;;;;5020077;28;20070;-67
2024/03/10 01:04:22;;;;;;;18.15;11.30;;;;;;;;;;5019919;28;20093;-66
2024/03/10 01:06:49;;;;;;;16.50;10.40;;;;;;;;;;5013688;28;20050;-66
2024/03/10 01:09:18;;;;;;;18.85;10.30;;;;;;;;;;5031733;28;20037;-66
2024/03/10 01:11:45;;;;;;;19.40;11.25;;;7.70;92.30;;;;;;5021662;28;20053;-68
2024/03/10 01:14:11;;;;;;;18.15;11.40;;;;;;;;;;5026089;28;20229;-68
2024/03/10 01:16:38;;;;;;;17.15;9.98;;;7.70;93.90;;;;;;5039896;28;20247;-65
2024/03/10 01:19:04;;;;;;;17.27;10.68;;;;;;;;;;5032874;28;20045;-66
2024/03/10 01:21:30;;;;;;;19.90;10.25;;;;;;;;;;5019140;28;20038;-67
2024/03/10 01:23:56;;;;;;;17.67;10.82;;;;;;;;;;5022503;28;20329;-67
2024/03/10 01:26:22;;;;;;;17.48;10.60;;;;;;;;;;5021895;28;20042;-66
2024/03/10 01:28:48;;;;;;;20.15;11.18;;;;;;;;;;5023991;28;20025;-66
2024/03/10 01:31:14;;;;;;;19.63;11.38;;;8.10;99.90;;;;;;5019029;28;20084;-66
2024/03/10 01:33:39;;;;;;;18.10;11.43;;;8.00;95.20;;;;;;5017894;28;20121;-64
2024/03/10 01:36:06;;;;;;;20.45;11.50;;;;;;;;;;5018680;28;20237;-66
2024/03/10 01:38:32;;;;;;;22.45;11.30;;;;;;;;;;5020525;28;20060;-65
2024/03/10 01:40:58;;;;;;;18.30;10.73;;;;;;;;;;5021334;28;20057;-66
2024/03/10 01:43:24;;;;;;;19.08;10.68;;;8.40;92.30;;;;;;5021652;28;20056;-66
2024/03/10 01:45:56;;;;;;;21.75;12.70;;;8.00;91.80;;;;;;5021037;28;20037;-66
2024/03/10 01:48:22;;;;;;;19.33;11.25;;;8.00;99.90;;;;;;5022135;28;20045;-65
2024/03/10 01:50:48;;;;;;;17.13;9.88;;;;;;;;;;5022281;28;20034;-64
2024/03/10 01:53:15;;;;;;;20.92;11.48;;;8.00;92.00;;;;;;5029721;28;20048;-65
2024/03/10 01:55:41;;;;;;;19.70;10.25;;;;;;;;;;5022615;28;20034;-65
2024/03/10 01:58:07;;;;;;;17.83;10.23;;;;;;;;;;5022667;28;20380;-65
2024/03/10 02:00:38;;;;;;;20.20;10.98;;;;;;;;;;5022205;28;20038;-64
2024/03/10 02:03:04;;;;;;;17.30;11.07;;;;;;;;;;5022385;28;20045;-65
2024/03/10 02:05:31;;;;;;;19.40;11.40;;;8.20;93.50;;;;;;5022209;28;20049;-64
2024/03/10 02:07:58;;;;;;;22.30;11.82;;;;;;;;;;5035437;28;20053;-65
2024/03/10 02:10:24;;;;;;;20.05;12.32;;;8.00;94.40;;;;;;5025417;28;20045;-65
2024/03/10 02:12:50;;;;;;;25.90;14.20;;;;;;;;;;5029806;28;20030;-65
2024/03/10 02:15:22;;;;;;;20.65;12.65;;;7.90;97.40;;;;;;5026257;28;20041;-65
2024/03/10 02:17:48;;;;;;;22.75;12.52;;;8.00;96.00;;;;;;5026050;28;20041;-65
2024/03/10 02:20:19;;;;;;;21.00;12.00;;;7.70;99.80;;;;;;5026690;28;20065;-65
2024/03/10 02:22:46;;;;;;;22.77;12.32;;;;;;;;;;5016156;28;20352;-65
2024/03/10 02:25:12;;;;;;;25.02;13.23;;;7.70;96.00;;;;;;5033769;28;20041;-65
2024/03/10 02:27:44;;;;;;;21.83;12.70;;;7.70;96.10;;;;;;5022416;28;20034;-66
2024/03/10 02:30:19;;;;;;;23.50;14.07;;;7.70;96.20;;;;;;5005763;28;20065;-64
2024/03/10 02:49:15;;;;;;;24.98;13.20;;;7.80;96.00;;;;;;5023341;28;20095;-66
2024/03/10 02:51:43;;;;;;;22.05;12.70;;;8.20;99.80;;;;;;5021616;28;20565;-67
2024/03/10 02:54:10;;;;;;;22.42;13.55;;;7.80;96.00;;;;;;5021155;28;20261;-66
2024/03/10 02:56:36;;;;;;;25.27;12.57;;;7.70;99.90;;;;;;5003540;28;20069;-67
2024/03/10 02:59:03;;;;;;;25.02;13.90;;;7.80;96.70;;;;;;5021168;28;20040;-66
2024/03/10 03:01:29;;;;;;;22.63;13.27;;;;;;;;;;5023164;28;20054;-67
2024/03/10 03:03:55;;;;;;;23.92;13.68;;;7.70;99.90;;;;;;5021294;28;20113;-66
2024/03/10 03:06:22;;;;;;;26.52;13.57;;;;;;;;;;5023554;28;20322;-66
2024/03/10 03:08:48;;;;;;;20.15;11.90;;;7.70;96.50;;;;;;5033013;28;20037;-68
2024/03/10 03:11:14;;;;;;;21.67;13.40;;;7.60;99.00;;;;;;5033740;28;20033;-68
2024/03/10 03:13:40;;;;;;;24.00;13.88;;;;;;;;;;5020863;28;20322;-67
2024/03/10 03:16:09;;;;;;;21.98;11.80;;;;;;;;;;5021083;28;20042;-68
2024/03/10 03:18:35;;;;;;;21.33;10.77;;;7.70;99.90;;;;;;5003515;28;20064;-67
2024/03/10 03:21:01;;;;;;;23.30;12.52;;;7.60;99.90;;;;;;5034710;28;20345;-66
2024/03/10 03:23:26;;;;;;;26.05;13.05;;;7.60;99.90;;;;;;5031981;28;20040;-66
2024/03/10 03:25:55;;;;;;;21.58;13.02;;;;;;;;;;5029084;28;20297;-66
2024/03/10 03:28:21;;;;;;;26.05;14.10;;;7.50;99.90;;;;;;5031937;28;20060;-67
2024/03/10 03:30:48;;;;;;;22.20;12.85;;;;;;;;;;5024441;28;20041;-66
2024/03/10 03:33:14;;;;;;;22.15;13.13;;;;;;;;;;5025136;28;20048;-67
2024/03/10 03:35:40;;;;;;;20.98;12.30;;;;;;;;;;5020387;28;20080;-68
2024/03/10 03:38:09;;;;;;;22.27;13.55;;;;;;;;;;5020164;28;20115;-66
2024/03/10 03:40:35;;;;;;;21.40;11.85;;;7.70;99.90;;;;;;5021320;28;20100;-65
2024/03/10 03:43:01;;;;;;;24.65;13.32;;;;;;;;;;5020209;28;20026;-65
2024/03/10 03:45:27;;;;;;;20.90;13.13;;;7.60;97.40;;;;;;5019985;28;20038;-65
2024/03/10 03:47:53;;;;;;;23.23;13.82;;;;;;;;;;5020022;28;20061;-66
2024/03/10 03:50:20;;;;;;;24.75;14.02;;;7.60;99.90;;;;;;5020311;28;20088;-66
2024/03/10 03:52:49;;;;;;;20.67;11.48;;;7.60;97.60;;;;;;5018754;28;20037;-67
2024/03/10 03:55:15;;;;;;;23.13;13.30;;;7.70;99.90;;;;;;5036068;28;20119;-66
2024/03/10 03:57:41;;;;;;;23.20;13.18;;;7.70;97.70;;;;;;5023608;28;20242;-66
2024/03/10 04:00:12;;;;;;;22.67;13.25;;;7.50;99.90;;;;;;5020014;28;20045;-65
2024/03/10 04:02:38;;;;;;;23.15;13.48;;;7.80;99.90;;;;;;5019997;28;20325;-68
2024/03/10 04:05:05;;;;;;;20.63;12.27;;;;;;;;;;5020271;28;20089;-67
2024/03/10 04:07:31;;;;;;;22.52;13.10;;;;;;;;;;5018718;28;20295;-67
2024/03/10 04:09:56;;;;;;;20.92;12.77;;;7.70;99.90;;;;;;5026828;28;20258;-67
2024/03/10 04:12:22;;;;;;;22.13;13.38;;;7.40;99.90;;;;;;5019697;28;20049;-67
2024/03/10 04:14:48;;;;;;;23.20;13.68;;;;;;;;;;5028179;28;20317;-67
2024/03/10 04:17:14;;;;;;;26.63;13.65;;;8.00;99.90;;;;;;5019940;28;20038;-67
2024/03/10 04:19:39;;;;;;;23.90;13.55;;;7.80;99.90;;;;;;5019738;28;20041;-68
2024/03/10 04:22:09;;;;;;;21.92;12.57;;;7.70;98.70;;;;;;5019961;28;20041;-67
2024/03/10 04:24:39;;;;;;;24.92;13.93;;;7.70;97.20;;;;;;5032501;28;20101;-68
2024/03/10 04:27:08;;;;;;;24.35;12.95;;;7.90;97.50;;;;;;5019457;28;20057;-67
2024/03/10 04:29:35;;;;;;;20.55;12.98;;;7.70;99.90;;;;;;5019473;28;20045;-67
2024/03/10 04:32:00;;;;;;;22.35;11.48;;;7.60;99.90;;;;;;5022347;28;20099;-67
2024/03/10 04:34:26;;;;;;;21.70;13.85;;;7.70;99.90;;;;;;5019281;28;20088;-66
2024/03/10 04:36:52;;;;;;;24.42;13.65;;;7.80;99.90;;;;;;5019243;28;20129;-65
2024/03/10 04:39:18;;;;;;;22.33;12.95;;;7.80;99.90;;;;;;5019599;28;20321;-65
2024/03/10 04:41:45;;;;;;;27.27;14.02;;;7.70;99.90;;;;;;5019385;28;20044;-69
2024/03/10 04:44:11;;;;;;;28.98;15.07;;;7.30;99.90;;;;;;5019520;28;20038;-65
2024/03/10 04:46:39;;;;;;;25.38;15.00;;;;;;;;;;5020205;28;20987;-65
2024/03/10 04:49:05;;;;;;;24.75;14.05;;;7.40;99.90;;;;;;5022571;28;20198;-64
2024/03/10 04:51:30;;;;;;;22.25;12.38;;;7.60;99.90;;;;;;5001797;28;20345;-65
2024/03/10 04:53:57;;;;;;;27.05;14.88;;;7.60;99.90;;;;;;5021078;28;20034;-65
2024/03/10 04:56:23;;;;;;;25.30;14.73;;;7.50;99.90;;;;;;5034248;28;20309;-67
2024/03/10 04:58:49;;;;;;;23.88;13.80;;;7.50;98.90;;;;;;5019519;28;20380;-67
2024/03/10 05:01:17;;;;;;;24.27;13.48;;;7.50;99.90;;;;;;5021474;28;20088;-67
2024/03/10 05:03:42;;;;;;;28.77;14.80;;;7.70;99.90;;;;;;5018774;28;20033;-67
2024/03/10 05:06:09;;;;;;;24.27;14.57;;;7.50;99.90;;;;;;5021546;28;20070;-68
2024/03/10 05:08:35;;;;;;;27.65;15.98;;;7.50;99.60;;;;;;5026698;28;20041;-68
2024/03/10 05:11:03;;;;;;;26.83;14.30;;;;;;;;;;5018538;28;20083;-67
2024/03/10 05:13:30;;;;;;;22.45;13.82;;;7.50;99.70;;;;;;5018418;28;20348;-68
2024/03/10 05:15:56;;;;;;;26.42;14.02;;;;;;;;;;5020779;28;20338;-65
2024/03/10 05:18:22;;;;;;;25.95;13.88;;;7.30;99.90;;;;;;5019376;28;20038;-65
2024/03/10 05:20:48;;;;;;;28.15;14.27;;;;;;;;;;5034952;28;20105;-65
2024/03/10 05:23:14;;;;;;;26.55;14.30;;;;;;;;;;5024935;28;20034;-65
2024/03/10 05:25:40;;;;;;;25.63;14.40;;;7.40;99.80;;;;;;5024084;28;20106;-66
2024/03/10 05:28:09;;;;;;;25.02;14.02;;;7.50;99.90;;;;;;5029199;28;20049;-65
2024/03/10 05:30:35;;;;;;;28.33;14.93;;;;;;;;;;5024159;28;20033;-65
2024/03/10 05:33:01;;;;;;;25.38;14.73;;;7.50;99.90;;;;;;5022747;28;20111;-64
2024/03/10 05:35:26;;;;;;;23.77;12.90;;;7.50;99.90;;;;;;5022748;28;20382;-64
2024/03/10 05:37:52;;;;;;;24.58;15.02;;;7.30;99.90;;;;;;5022506;28;20058;-65
2024/03/10 05:40:18;;;;;;;23.13;13.13;;;7.40;99.90;;;;;;5033159;28;20041;-65
2024/03/10 05:42:44;;;;;;;22.15;14.75;;;7.50;99.90;;;;;;5029505;28;20451;-65
2024/03/10 05:45:11;;;;;;;27.98;15.80;;;7.60;99.90;;;;;;5022560;28;20349;-64
2024/03/10 05:47:37;;;;;;;30.95;16.00;;;7.60;99.90;;;;;;5007037;28;20100;-65
2024/03/10 05:50:03;;;;;;;26.63;14.82;;;7.50;99.90;;;;;;5028401;28;20038;-64
2024/03/10 05:52:28;;;;;;;26.23;14.13;;;7.50;99.90;;;;;;5022746;28;20044;-64
2024/03/10 05:54:55;;;;;;;25.85;14.02;;;7.50;99.90;;;;;;5022720;28;20034;-65
2024/03/10 05:57:21;;;;;;;19.95;11.98;;;7.50;99.90;;;;;;5033433;28;20041;-64
2024/03/10 05:59:47;;;;;;;25.30;14.50;;;7.60;99.90;;;;;;5022694;28;20038;-64
2024/03/10 06:02:16;;;;;;;25.30;14.85;;;7.50;99.90;;;;;;5022564;28;20026;-69
2024/03/10 06:04:42;;;;;;;25.95;14.32;;;7.60;99.90;;;;;;5022395;28;20034;-66
2024/03/10 06:07:09;;;;;;;27.10;14.77;;;7.50;99.90;;;;;;5022579;28;20032;-65
2024/03/10 06:09:35;;;;;;;25.40;14.85;;;7.60;99.90;;;;;;5022912;28;20097;-66
2024/03/10 06:12:03;;;;;;;24.23;14.55;;;7.70;99.90;;;;;;5022644;28;20060;-66
2024/03/10 06:14:30;;;;;;;27.95;15.60;;;7.70;99.90;;;;;;5024776;28;20038;-65
2024/03/10 06:16:57;;;;;;;28.23;15.48;;;7.80;99.90;;;;;;5008528;28;20049;-65
2024/03/10 06:27:39;;;;;;;28.05;15.65;;;;;;;;;;5034509;28;20037;-66
2024/03/10 06:30:06;;;;;;;27.75;15.85;;;8.00;98.70;;;;;;5025335;28;20380;-66
2024/03/10 06:32:31;;;;;;;29.58;16.88;;;8.00;99.90;;;;;;5027126;28;20042;-67
2024/03/10 06:34:58;;;;;;;26.00;15.98;;;8.00;99.90;;;;;;5037554;28;20372;-66
2024/03/10 06:37:23;;;;;;;24.27;15.15;;;8.20;99.90;;;;;;5034713;28;20050;-67
2024/03/10 06:39:49;;;;;;;25.33;15.02;;;8.20;99.90;;;;;;5032664;28;20037;-70
2024/03/10 06:42:15;;;;;;;28.35;14.68;;;8.30;99.90;;;;;;5025378;28;20041;-67
2024/03/10 06:44:42;;;;;;;25.02;14.52;;;;;;;;;;5025308;28;20045;-66
2024/03/10 06:47:09;;;;;;;28.00;15.80;;;;;;;;;;5025904;28;20038;-67
2024/03/10 06:49:34;;;;;;;23.17;11.93;;;8.50;99.90;;;;;;5035009;28;20041;-70
2024/03/10 06:52:01;;;;;;;25.58;15.05;;;;;;;;;;5018352;28;20044;-66
2024/03/10 06:54:27;;;;;;;29.23;16.70;;;;;;;;;;5022082;28;20065;-66
2024/03/10 06:56:53;;;;;;;23.55;13.68;;;;;;;;;;5030687;28;20049;-66
2024/03/10 06:59:22;;;;;;;27.95;15.90;;;9.10;98.80;;;;;;5022117;28;20428;-67
2024/03/10 07:01:48;;;;;;;24.35;14.77;;;;;;;;;;5024120;28;20026;-70
2024/03/10 07:04:14;;;;;;;24.73;15.00;;;;;;;;;;5020264;28;20314;-68
2024/03/10 07:06:41;;;;;;;27.40;15.27;;;8.90;99.90;;;;;;5024453;28;20285;-66
2024/03/10 07:09:08;;;;;;;30.10;17.10;;;;;;;;;;5021911;28;20045;-65
2024/03/10 07:11:36;;;;;;;26.98;14.25;;;8.70;97.30;;;;;;5020862;28;20097;-68
2024/03/10 07:14:02;;;;;;;24.25;15.82;;;;;;;;;;5026441;28;20041;-65
2024/03/10 07:16:28;;;;;;;24.60;15.07;;;;;;;;;;5023017;28;20053;-64
2024/03/10 07:18:54;;;;;;;27.58;16.65;;;;;;;;;;5020918;28;20083;-64
2024/03/10 07:21:20;;;;;;;26.60;15.98;;;8.50;99.90;;;;;;5031943;28;20037;-64
2024/03/10 07:23:46;;;;;;;27.23;16.52;;;;;;;;;;5031704;28;20041;-66
2024/03/10 07:26:13;;;;;;;26.00;16.35;;;;;;;;;;5023101;28;20037;-65
2024/03/10 07:28:39;;;;;;;28.80;17.70;;;;;;;;;;5039241;28;20040;-65
2024/03/10 07:31:05;;;;;;;25.67;16.05;;;;;;;;;;5026064;28;20053;-65
2024/03/10 07:33:34;;;;;;;27.70;15.05;;;8.90;99.90;;;;;;5030686;28;20261;-65
2024/03/10 07:36:03;;;;;;;29.83;17.45;;;8.70;99.90;;;;;;5037824;28;20101;-67
2024/03/10 07:38:29;;;;;;;25.80;13.93;;;;;;;;;;5034068;28;20065;-66
2024/03/10 07:40:54;;;;;;;24.70;14.05;;;9.10;99.90;;;;;;5027820;28;20041;-66
2024/03/10 07:43:20;;;;;;;30.88;19.70;;;9.10;99.90;;;;;;5036651;28;20037;-67
2024/03/10 07:45:46;;;;;;;28.00;16.70;;;9.50;99.90;;;;;;5028481;28;20053;-66
2024/03/10 07:48:16;;;;;;;26.60;15.57;;;9.40;96.10;;;;;;5014325;28;20375;-67
2024/03/10 07:50:42;;;;;;;27.85;16.83;;;9.30;99.90;;;;;;5020471;28;20049;-67
2024/03/10 07:53:09;;;;;;;30.00;18.55;;;9.80;99.90;;;;;;5028838;28;20052;-67
2024/03/10 07:55:36;;;;;;;32.47;18.95;;;9.70;99.90;;;;;;5023023;28;20056;-66
2024/03/10 07:58:05;;;;;;;33.03;18.67;;;9.90;99.90;;;;;;5028446;28;20037;-66
2024/03/10 08:00:31;;;;;;;30.88;19.30;;;9.90;99.90;;;;;;5021846;28;20060;-66
2024/03/10 08:02:57;;;;;;;29.00;17.88;;;9.90;94.50;;;;;;5020138;28;20049;-66
2024/03/10 08:05:23;;;;;;;30.00;19.05;;;9.90;99.90;;;;;;5019985;28;20038;-66
2024/03/10 08:07:49;;;;;;;31.27;17.08;;;10.10;94.00;;;;;;5021865;28;20037;-65
2024/03/10 08:10:16;;;;;;;30.17;17.13;;;10.10;99.90;;;;;;5003077;28;20366;-66
2024/03/10 08:12:46;;;;;;;27.83;18.23;;;10.00;99.90;;;;;;5032727;28;20029;-66
2024/03/10 08:15:14;;;;;;;30.77;17.75;;;9.80;99.90;;;;;;5027712;28;20030;-69
2024/03/10 08:17:41;;;;;;;30.80;18.80;;;10.10;99.90;;;;;;5018913;28;20069;-66
2024/03/10 08:20:13;;;;;;;31.45;19.27;;;9.80;99.90;;;;;;5019943;28;20045;-64
2024/03/10 08:22:45;;;;;;;31.35;20.52;;;9.80;99.90;;;;;;5019559;28;20049;-65
2024/03/10 08:25:12;;;;;;;34.22;20.38;;;9.70;94.70;;;;;;5003732;28;20034;-64
2024/03/10 08:27:38;;;;;;;32.67;20.00;;;9.70;99.90;;;;;;5018349;28;20097;-68
2024/03/10 08:30:09;;;;;;;32.47;19.17;;;9.70;99.90;;;;;;5022387;28;20211;-65
2024/03/10 08:32:36;;;;;;;32.97;21.55;;;9.70;94.90;;;;;;5019346;28;20501;-64
2024/03/10 08:35:07;;;;;;;32.63;20.50;;;9.80;95.00;;;;;;5019753;28;20196;-64
2024/03/10 08:37:37;;;;;;;34.05;21.83;;;10.00;99.90;;;;;;5019289;28;20057;-68
2024/03/10 08:40:12;;;;;;;34.20;22.15;;;10.30;99.90;;;;;;5025740;28;20040;-68
2024/03/10 08:42:41;;;;;;;30.08;19.40;;;10.20;94.10;;;;;;5028979;28;20029;-68
2024/03/10 08:45:10;;;;;;;29.00;18.65;;;10.50;93.70;;;;;;5019631;28;20057;-67
2024/03/10 08:47:42;;;;;;;32.20;19.42;;;10.90;92.00;;;;;;5021995;28;20042;-68
2024/03/10 08:50:12;;;;;;;31.15;20.05;;;11.50;99.90;;;;;;5020445;28;20053;-72
2024/03/10 08:52:39;;;;;;;33.42;19.90;;;11.10;91.70;;;;;;5030091;28;20072;-67
2024/03/10 08:55:06;;;;;;;28.42;18.67;;;11.30;90.80;;;;;;5019985;28;20034;-67
2024/03/10 08:57:33;;;;;;;29.75;17.25;;;11.50;98.20;;;;;;5023683;28;20053;-65
2024/03/10 09:00:02;;;;;;;33.58;21.35;;;11.50;88.60;;;;;;5026701;28;20059;-67
2024/03/10 09:02:28;;;;;;;;;;;11.50;88.20;;;;;;5027159;28;20033;-65
2024/03/10 09:04:54;;;;;;;32.25;20.20;;;11.40;87.40;;;;;;5032529;28;19941;-63
2024/03/10 09:07:20;;;;;;;33.53;20.45;;;11.30;88.80;;;;;;5034416;28;20072;-67
2024/03/10 09:09:47;;;;;;;29.38;19.92;;;11.50;88.90;;;;;;5032258;28;20033;-65
2024/03/10 09:12:12;;;;;;;31.38;20.52;;;11.80;97.20;;;;;;5033996;28;20042;-65
2024/03/10 09:14:38;;;;;;;28.58;18.05;;;;;;;;;;5025615;28;20101;-71
2024/03/10 09:17:04;;;;;;;27.08;18.15;;;12.30;83.80;;;;;;5025625;28;20100;-67
2024/03/10 09:19:30;;;;;;;29.75;19.60;;;12.70;82.80;;;;;;5025322;28;20250;-65
2024/03/10 09:21:58;;;;;;;26.02;17.55;;;13.40;79.10;;;;;;5033421;28;20042;-66
2024/03/10 09:24:24;;;;;;;26.92;15.77;;;13.40;79.10;;;;;;5028739;28;20088;-65
2024/03/10 09:26:50;;;;;;;25.25;17.10;;;13.50;77.60;;;;;;5032958;28;20321;-65
2024/03/10 09:29:21;;;;;;;27.67;18.08;;;13.40;77.30;;;;;;5025418;28;20097;-65
2024/03/10 09:31:46;;;;;;;25.23;17.10;;;13.30;77.50;;;;;;5025568;28;20069;-65
2024/03/10 09:34:13;;;;;;;25.67;18.00;;;13.20;77.10;;;;;;5033771;28;20038;-66
2024/03/10 09:36:39;;;;;;;26.58;18.67;;;12.90;78.20;;;;;;5025236;28;20057;-68
2024/03/10 09:39:12;;;;;;;25.25;17.20;;;12.80;79.50;;;;;;5028553;28;20046;-66
2024/03/10 09:41:42;;;;;;;27.33;17.73;;;12.70;78.80;;;;;;5025413;28;20060;-66
2024/03/10 09:44:13;;;;;;;26.08;17.90;;;12.70;79.30;;;;;;5024101;28;20080;-65
2024/03/10 09:46:43;;;;;;;26.67;17.88;;;12.80;94.50;;;;;;5028862;28;20033;-65
2024/03/10 09:49:16;;;;;;;25.02;17.80;;;12.70;80.40;;;;;;5025354;28;20033;-68
2024/03/10 09:51:44;;;;;;;27.38;18.58;;;12.90;80.00;;;;;;5026028;28;20061;-67
2024/03/10 09:54:10;;;;;;;24.38;16.60;;;12.90;78.30;;;;;;5035458;28;20032;-66
2024/03/10 09:56:36;;;;;;;26.58;18.30;;;13.00;79.30;;;;;;5030117;28;20033;-66
2024/03/10 09:59:07;;;;;;;28.80;18.42;;;13.00;78.90;;;;;;5025920;28;20218;-65
2024/03/10 10:01:35;;;;;;;30.17;18.38;;;13.00;77.60;;;;;;5026041;28;20123;-65
2024/03/10 10:04:03;;;;;;;30.63;18.77;;;13.10;93.20;;;;;;5026542;28;20038;-65
2024/03/10 10:06:35;;;;;;;30.73;17.58;;;13.30;77.20;;;;;;5025903;28;20056;-66
2024/03/10 10:09:07;;;;;;;25.65;18.25;;;13.20;77.60;;;;;;5024852;28;20079;-69
2024/03/10 10:11:34;;;;;;;28.33;19.27;;;13.30;77.10;;;;;;5027688;28;20138;-64
2024/03/10 10:14:15;;;;;;;25.95;17.48;;;13.30;77.60;;;;;;5027507;28;20053;-64
2024/03/10 10:16:52;;;;;;;24.80;16.38;;;13.40;77.70;;;;;;5026856;28;20029;-70
2024/03/10 10:19:19;;;;;;;27.30;18.67;;;13.50;76.30;;;;;;5021711;28;20124;-64
2024/03/10 10:21:45;;;;;;;26.25;17.42;;;13.40;77.10;;;;;;5021539;28;20053;-65
2024/03/10 10:24:13;;;;;;;24.73;17.38;;;13.40;77.60;;;;;;5021842;28;20045;-65
2024/03/10 10:26:40;;;;;;;25.40;17.65;;;13.60;76.60;;;;;;5032520;28;20068;-66
2024/03/10 10:29:09;;;;;;;24.45;17.42;;;;;;;;;;5036411;28;20072;-65
2024/03/10 10:31:39;;;;;;;24.55;16.80;;;14.00;74.10;;;;;;5024538;28;20049;-64
2024/03/10 10:34:12;;;;;;;24.70;17.17;;;14.20;74.20;;;;;;5021672;28;20030;-66
2024/03/10 10:36:41;;;;;;;23.30;17.38;;;;;;;;;;5028620;28;20045;-65
2024/03/10 10:39:17;;;;;;;23.27;17.15;;;14.80;71.80;;;;;;5046455;28;20091;-65
2024/03/10 10:41:46;;;;;;;25.58;17.02;;;15.30;88.80;;;;;;5030056;28;20049;-65
2024/03/10 10:44:15;;;;;;;21.08;15.13;;;15.40;69.90;;;;;;5021740;28;20072;-70
2024/03/10 10:46:44;;;;;;;;;;;15.60;68.80;;;;;;5033596;28;20057;-65
2024/03/10 10:49:11;;;;;;;21.77;16.48;;;15.70;67.80;;;;;;5021528;28;20232;-66
2024/03/10 10:51:47;;;;;;;24.15;17.77;;;15.50;67.70;;;;;;5023368;28;20172;-64
2024/03/10 10:54:21;;;;;;;26.80;18.15;;;15.60;68.10;;;;;;5025893;28;20334;-66
2024/03/10 10:57:00;;;;;;;22.75;17.05;;;15.60;68.10;;;;;;5017184;28;20362;-65
2024/03/10 10:59:29;;;;;;;19.90;14.88;;;15.60;68.30;;;;;;5030101;28;20049;-64
2024/03/10 11:02:24;;;;;;;20.00;13.75;;;15.70;68.00;;;;;;5028462;28;20096;-65
2024/03/10 11:05:06;;;;;;;18.80;13.77;;;15.70;66.30;;;;;;5030184;28;20229;-64
2024/03/10 11:07:35;;;;;;;18.08;14.02;;;13.80;66.00;;;;;;5021969;28;20346;-64
2024/03/10 11:10:42;;;;;;;20.90;14.80;;;15.70;67.20;;;;;;5028936;28;20033;-65
2024/03/10 11:13:10;;;;;;;22.38;16.30;;;;;;;;;;5022936;28;20054;-64
2024/03/10 11:15:36;;;;;;;19.07;14.43;;;16.00;66.20;;;;;;5020650;28;20037;-65
2024/03/10 11:18:20;;;;;;;21.30;14.63;;;16.20;65.80;;;;;;5020195;28;20021;-65
2024/03/10 11:20:47;;;;;;;18.70;13.98;;;16.30;65.50;;;;;;5026480;28;20033;-65
2024/03/10 11:23:13;;;;;;;23.05;14.77;;;15.60;64.60;;;;;;5027241;28;20029;-67
2024/03/10 11:25:48;;;;;;;21.65;15.52;;;16.60;65.20;;;;;;5035302;28;20051;-68
2024/03/10 11:28:13;;;;;;;22.08;14.00;;;16.20;82.80;;;;;;5020676;28;20113;-67
2024/03/10 11:30:45;;;;;;;18.90;14.10;;;16.30;65.40;;;;;;5014478;28;20056;-69
2024/03/10 11:33:13;;;;;;;20.55;15.02;;;16.30;65.00;;;;;;5022514;28;20380;-67
2024/03/10 11:35:39;;;;;;;19.23;14.27;;;;;;;;;;5002584;28;20062;-70
2024/03/10 11:38:09;;;;;;;24.30;15.65;;;16.40;64.70;;;;;;5025251;28;20069;-66
2024/03/10 11:40:40;;;;;;;19.27;15.27;;;16.60;64.00;;;;;;5028579;28;20044;-67
2024/03/10 11:43:08;;;;;;;18.88;14.00;;;16.70;64.00;;;;;;5026407;28;20097;-67
2024/03/10 11:45:34;;;;;;;22.17;15.85;;;17.00;82.50;;;;;;5030079;28;20045;-67
2024/03/10 11:48:03;;;;;;;19.65;14.05;;;16.90;64.40;;;;;;5020501;28;20352;-67
2024/03/10 11:50:37;;;;;;;;;;;17.10;63.60;;;;;;5018138;28;20101;-67
2024/03/10 11:53:03;;;;;;;19.00;13.13;;;17.00;62.50;;;;;;5020938;28;20106;-67
2024/03/10 11:55:30;;;;;;;17.90;14.10;;;18.10;64.40;;;;;;5027510;28;20083;-68
2024/03/10 11:57:57;;;;;;;18.25;13.38;;;17.00;63.60;;;;;;5024580;28;20037;-66
2024/03/10 12:00:23;;;;;;;21.40;14.43;;;17.00;63.60;;;;;;5021751;28;20345;-67
2024/03/10 12:02:52;;;;;;;20.73;14.63;;;17.00;63.50;;;;;;5021539;28;20034;-67
2024/03/10 12:05:18;;;;;;;19.15;13.80;;;17.00;63.60;;;;;;5027027;28;20048;-66
2024/03/10 12:07:48;;;;;;;18.45;13.18;;;17.20;63.80;;;;;;5028124;28;20099;-66
2024/03/10 12:10:18;;;;;;;20.08;14.43;;;17.20;63.60;;;;;;5022171;28;20037;-67
2024/03/10 12:12:51;;;;;;;21.08;14.73;;;18.60;83.30;;;;;;5020309;28;20045;-68
2024/03/10 12:15:17;;;;;;;19.38;14.18;;;16.70;64.00;;;;;;5021666;28;20038;-69
2024/03/10 12:17:51;;;;;;;19.15;13.05;;;16.80;64.30;;;;;;5020843;28;20041;-69
2024/03/10 12:20:18;;;;;;;19.13;14.20;;;16.60;63.70;;;;;;5019818;28;20338;-67
2024/03/10 12:22:48;;;;;;;16.55;11.95;;;16.50;64.00;;;;;;5036837;28;20091;-67
2024/03/10 12:25:19;;;;;;;18.30;13.15;;;16.70;64.70;;;;;;5019924;28;20397;-71
2024/03/10 12:27:47;;;;;;;19.20;13.35;;;16.80;82.60;;;;;;5034463;28;20034;-67
2024/03/10 12:30:13;;;;;;;19.30;13.27;;;16.80;64.30;;;;;;5027266;28;20049;-67
2024/03/10 12:32:44;;;;;;;18.90;13.40;;;16.70;63.90;;;;;;5026841;28;20034;-68
2024/03/10 12:35:10;;;;;;;20.83;14.35;;;16.40;64.60;;;;;;5019789;28;20045;-68
2024/03/10 12:37:42;;;;;;;17.98;13.63;;;16.10;85.40;;;;;;5019044;28;20054;-68
2024/03/10 12:40:14;;;;;;;19.45;13.95;;;15.90;66.80;;;;;;5026917;28;20088;-69
2024/03/10 12:42:46;;;;;;;19.58;14.00;;;15.60;67.40;;;;;;5019716;28;20050;-69
2024/03/10 12:45:15;;;;;;;18.65;11.93;;;15.30;88.60;;;;;;5022378;28;20045;-68
2024/03/10 12:47:48;;;;;;;;;;;15.30;69.60;;;;;;5019605;28;20180;-69
2024/03/10 12:50:16;;;;;;;19.15;14.00;;;15.20;70.00;;;;;;5025398;28;19924;-70
2024/03/10 12:52:45;;;;;;;20.95;13.25;;;15.10;70.60;;;;;;5021701;28;20069;-68
2024/03/10 12:55:11;;;;;;;21.80;15.27;;;15.10;71.20;;;;;;5026773;28;20108;-70
2024/03/10 12:57:39;;;;;;;23.75;17.33;;;15.10;71.50;;;;;;5031638;28;20087;-68
2024/03/10 13:02:50;;;;;;;22.40;16.63;;;15.20;71.50;;;;;;5018214;28;20030;-67
2024/03/10 13:05:19;;;;;;;23.35;16.50;;;15.30;71.30;;;;;;5019936;28;20042;-70
2024/03/10 13:07:45;;;;;;;;;;;15.40;71.20;;;;;;5022047;28;20075;-69
2024/03/10 13:10:11;;;;;;;17.58;12.80;;;15.90;70.10;;;;;;5023418;28;19924;-72
2024/03/10 13:12:38;;;;;;;23.08;13.93;;;16.20;67.80;;;;;;5020250;28;20049;-65
2024/03/10 13:15:08;;;;;;;18.58;13.32;;;16.50;67.50;;;;;;5021119;28;20022;-64
2024/03/10 13:17:34;;;;;;;17.67;13.57;;;16.80;66.70;;;;;;5024772;28;20029;-65
2024/03/10 13:20:01;;;;;;;17.88;13.43;;;16.90;66.40;;;;;;5024468;28;20030;-65
2024/03/10 13:22:27;;;;;;;19.35;13.55;;;17.40;64.10;;;;;;5028411;28;20087;-66
2024/03/10 13:24:53;;;;;;;18.90;12.68;;;17.20;64.60;;;;;;5038277;28;20034;-67